Portada
METAR-TAF:

METAR-TAF

Aeroports :

Blytheville Municipal Airport

Blytheville, Arkansas, Estats Units d'Amèrica

latitud: 35-56-20N, longitud: 089-49-57W, altitud: 78 m

Observació

L'informe es va fer fa 30 minuts, a les 13:53 UTC
Vent calma
Temperatura 4°C
Humitat 87%
Pressió 1014 hPa
Visibilitat: 11.3 km
Cel ennuvolat a una alçada de 4300 ft

METAR: KHKA 181353Z AUTO 00000KT 7SM BKN043 04/02 A2993 RMK AO2 SLP136 T00440017 $

Hora: 08:23 (14:23 UTC)


TAF: manca

Observacions i pronòstics meteorològics de més de 4000 aeroports (METAR i TAF).

Les estacions disponibles són els punts grocs i vermells al mapa.

Posi el ratolí al punt desitjat per veure el nom de l'estació.

Feu clic per veure les observacions i els pronòstics meteorològics.

Per canviar el mapa: feu clic els botons verds amb una creu de color negre per apropar; al botó verd amb un guió per allunyar la imatge; o en les fletxes verdes per a mapes adjacents.


METAR-TAF: